Time;durP1;ratioP1;P1;durP2;ratioP2;P2;SDS_P1;SDS_P2;PMS_P1;PMS_P2;Temp;Humidity;BMP_temperature;BMP_pressure;BME280_temperature;BME280_humidity;BME280_pressure;Samples;Min_cycle;Max_cycle;Signal;HPM_P1;HPM_P2
2022/01/05 00:02:15;;;;;;;;;;;;;;;11.26;57.50;98380.47;4426847;32;19989;-82
2022/01/05 00:04:42;;;;;;;;;;;;;;;11.36;57.17;98373.50;4425742;32;20006;-82
2022/01/05 00:07:09;;;;;;;;;;;;;;;11.26;57.76;98371.84;4419567;32;20031;-82
2022/01/05 00:09:35;;;;;;;;;;;;;;;11.27;57.87;98376.16;4424168;32;20824;-81
2022/01/05 00:12:04;;;;;;;;;;;;;;;11.25;57.77;98377.91;4405291;32;20000;-82
2022/01/05 00:14:30;;;;;;;;;;;;;;;11.31;57.58;98377.84;4415724;32;19994;-82
2022/01/05 00:16:57;;;;;;;;;;;;;;;11.32;57.83;98374.38;4409710;32;19970;-81
2022/01/05 00:19:24;;;;;;;;;;;;;;;11.35;57.71;98375.19;4422378;32;20496;-82
2022/01/05 00:21:51;;;;;;;;;;;;;;;11.25;57.74;98378.75;4415495;32;19985;-82
2022/01/05 00:24:17;;;;;;;;;;;;;;;11.22;57.70;98362.41;4413991;32;20031;-82
2022/01/05 00:26:44;;;;;;;;;;;;;;;11.32;57.35;98359.69;4418577;32;20695;-81
2022/01/05 00:29:11;;;;;;;;;;;;;;;11.32;57.28;98353.66;4420223;32;20012;-81
2022/01/05 00:31:38;;;;;;;;;;;;;;;11.36;56.98;98350.16;4415568;32;20785;-82
2022/01/05 00:34:05;;;;;;;;;;;;;;;11.39;56.95;98350.09;4421259;32;19999;-82
2022/01/05 00:36:32;;;;;;;;;;;;;;;11.35;57.00;98349.28;4417792;32;20282;-81
2022/01/05 00:38:59;;;;;;;;;;;;;;;11.31;57.13;98346.75;4416918;32;20330;-82
2022/01/05 00:41:28;;;;;;;;;;;;;;;11.16;57.26;98348.63;4421801;32;20004;-82
2022/01/05 00:43:55;;;;;;;;;;;;;;;11.33;57.86;98345.03;4415195;32;19985;-81
2022/01/05 00:46:22;;;;;;;;;;;;;;;11.39;58.03;98355.28;4393411;32;20020;-81
2022/01/05 00:48:49;;;;;;;;;;;;;;;11.49;57.92;98356.06;4408715;32;19990;-81
2022/01/05 00:51:15;;;;;;;;;;;;;;;11.50;57.85;98348.25;4386576;32;20324;-82
2022/01/05 00:53:42;;;;;;;;;;;;;;;11.59;57.39;98352.50;4391435;32;19990;-81
2022/01/05 00:56:09;;;;;;;;;;;;;;;11.53;57.50;98343.03;4386710;32;19997;-82
2022/01/05 00:58:36;;;;;;;;;;;;;;;11.63;57.20;98354.16;4391406;32;20033;-82
2022/01/05 01:01:03;;;;;;;;;;;;;;;11.63;57.21;98352.41;4384649;32;20312;-82
2022/01/05 01:03:30;;;;;;;;;;;;;;;11.53;57.46;98358.59;4384444;32;19993;-81
2022/01/05 01:05:59;;;;;;;;;;;;;;;11.61;57.59;98361.97;4389207;32;19975;-81
2022/01/05 01:08:26;;;;;;;;;;;;;;;11.54;57.96;98370.66;4387950;32;19978;-81
2022/01/05 01:10:53;;;;;;;;;;;;;;;11.60;57.59;98370.59;4411027;32;19990;-81
2022/01/05 01:13:20;;;;;;;;;;;;;;;11.50;57.94;98363.81;4390044;32;20010;-81
2022/01/05 01:15:47;;;;;;;;;;;;;;;11.57;58.13;98355.09;4384201;32;20025;-81
2022/01/05 01:18:14;;;;;;;;;;;;;;;11.54;58.76;98349.94;4386574;32;20038;-81
2022/01/05 01:20:42;;;;;;;;;;;;;;;11.63;58.21;98355.00;4389650;32;20004;-82
2022/01/05 01:23:09;;;;;;;;;;;;;;;11.71;58.04;98351.47;4384392;32;19978;-81
2022/01/05 01:25:36;;;;;;;;;;;;;;;11.64;58.07;98346.34;4390725;32;19993;-81
2022/01/05 01:28:03;;;;;;;;;;;;;;;11.62;58.07;98348.13;4422439;32;19982;-82
2022/01/05 01:30:31;;;;;;;;;;;;;;;11.67;57.78;98339.44;4412322;32;19989;-81
2022/01/05 01:32:58;;;;;;;;;;;;;;;11.74;57.17;98336.75;4420610;32;19985;-82
2022/01/05 01:35:25;;;;;;;;;;;;;;;11.68;57.48;98323.87;4413341;32;20276;-81
2022/01/05 01:37:55;;;;;;;;;;;;;;;11.59;58.28;98331.75;4400955;32;19989;-82
2022/01/05 01:40:22;;;;;;;;;;;;;;;11.59;58.29;98337.78;4405815;32;20354;-82
2022/01/05 01:42:49;;;;;;;;;;;;;;;11.73;57.77;98339.34;4399212;32;20155;-81
2022/01/05 01:45:16;;;;;;;;;;;;;;;11.75;57.71;98337.59;4399408;32;19973;-82
2022/01/05 01:47:43;;;;;;;;;;;;;;;11.63;58.09;98333.44;4383237;32;20011;-82
2022/01/05 01:50:10;;;;;;;;;;;;;;;11.67;58.12;98326.47;4412407;32;20387;-82
2022/01/05 01:52:37;;;;;;;;;;;;;;;11.60;58.19;98331.72;4416805;32;19985;-82
2022/01/05 01:55:04;;;;;;;;;;;;;;;11.60;58.02;98326.53;4418136;32;20031;-81
2022/01/05 01:57:35;;;;;;;;;;;;;;;11.64;57.95;98325.63;4411686;32;19997;-82
2022/01/05 02:00:26;;;;;;;;;;;;;;;11.63;57.90;98323.91;4424514;32;19978;-82
2022/01/05 02:02:53;;;;;;;;;;;;;;;11.79;57.64;98321.97;4415860;32;19996;-82
2022/01/05 02:05:37;;;;;;;;;;;;;;;11.67;58.05;98336.84;4418234;32;19977;-81
2022/01/05 02:08:04;;;;;;;;;;;;;;;11.55;58.29;98330.06;4422860;32;19978;-81
2022/01/05 02:10:31;;;;;;;;;;;;;;;11.60;57.84;98329.13;4419394;32;19970;-82
2022/01/05 02:12:58;;;;;;;;;;;;;;;11.58;58.19;98325.72;4428626;32;20039;-81
2022/01/05 02:15:25;;;;;;;;;;;;;;;11.68;57.91;98330.75;4424683;32;19977;-81
2022/01/05 02:18:07;;;;;;;;;;;;;;;11.63;58.18;98334.28;4416674;32;19985;-81
2022/01/05 02:20:34;;;;;;;;;;;;;;;11.56;58.57;98322.28;4416499;32;19982;-82
2022/01/05 02:23:01;;;;;;;;;;;;;;;11.68;57.99;98321.28;4436356;32;19986;-81
2022/01/05 02:25:28;;;;;;;;;;;;;;;11.70;57.74;98318.66;4416577;32;20023;-81
2022/01/05 02:27:56;;;;;;;;;;;;;;;11.73;58.10;98323.78;4422844;32;19992;-81
2022/01/05 02:30:24;;;;;;;;;;;;;;;11.58;58.22;98320.53;4423061;32;20061;-81
2022/01/05 02:32:52;;;;;;;;;;;;;;;11.58;58.09;98320.53;4416635;32;20034;-81
2022/01/05 02:35:19;;;;;;;;;;;;;;;11.69;57.58;98310.03;4416435;32;19984;-81
2022/01/05 02:37:47;;;;;;;;;;;;;;;11.73;57.07;98309.09;4416751;32;19986;-81
2022/01/05 02:40:14;;;;;;;;;;;;;;;11.70;57.48;98308.28;4423953;32;20027;-81
2022/01/05 02:42:41;;;;;;;;;;;;;;;11.67;57.42;98303.13;4431564;32;19977;-82
2022/01/05 02:45:09;;;;;;;;;;;;;;;11.77;56.90;98294.34;4431789;32;20669;-81
2022/01/05 02:47:36;;;;;;;;;;;;;;;11.60;57.18;98298.03;4427210;32;20026;-81
2022/01/05 02:50:04;;;;;;;;;;;;;;;11.62;57.39;98295.44;4421170;32;19982;-81
2022/01/05 02:52:31;;;;;;;;;;;;;;;11.58;57.46;98299.81;4416452;32;20039;-81
2022/01/05 02:54:57;;;;;;;;;;;;;;;11.49;57.68;98304.25;4415405;32;20028;-81
2022/01/05 02:57:24;;;;;;;;;;;;;;;11.49;57.92;98302.50;4414630;32;19986;-81
2022/01/05 02:59:52;;;;;;;;;;;;;;;11.60;57.70;98292.84;4416746;32;19990;-81
2022/01/05 03:02:19;;;;;;;;;;;;;;;11.60;57.84;98298.03;4415054;32;19978;-82
2022/01/05 03:04:46;;;;;;;;;;;;;;;11.58;58.11;98302.41;4420544;32;19989;-81
2022/01/05 03:07:14;;;;;;;;;;;;;;;11.52;57.90;98299.00;4420058;32;20365;-81
2022/01/05 03:09:40;;;;;;;;;;;;;;;11.58;57.98;98288.56;4420255;32;20038;-81
2022/01/05 03:12:08;;;;;;;;;;;;;;;11.55;57.99;98302.44;4421664;32;19996;-81
2022/01/05 03:14:35;;;;;;;;;;;;;;;11.30;59.38;98290.66;4429347;32;19981;-82
2022/01/05 03:17:01;;;;;;;;;;;;;;;11.48;58.43;98300.78;4415881;32;20024;-82
2022/01/05 03:19:28;;;;;;;;;;;;;;;11.50;58.32;98301.63;4415288;32;20030;-82
2022/01/05 03:21:55;;;;;;;;;;;;;;;11.57;58.00;98298.06;4415827;32;20030;-81
2022/01/05 03:24:22;;;;;;;;;;;;;;;11.61;57.38;98307.53;4418048;32;19981;-81
2022/01/05 03:26:49;;;;;;;;;;;;;;;11.51;57.71;98303.31;4424871;32;19982;-81
2022/01/05 03:29:15;;;;;;;;;;;;;;;11.52;57.76;98299.00;4421313;32;19982;-82
2022/01/05 03:31:42;;;;;;;;;;;;;;;11.53;58.03;98300.75;4418124;32;19973;-81
2022/01/05 03:34:16;;;;;;;;;;;;;;;11.50;58.34;98301.63;4422763;32;20315;-81
2022/01/05 03:36:44;;;;;;;;;;;;;;;11.58;58.37;98294.63;4415954;32;19969;-81
2022/01/05 03:39:11;;;;;;;;;;;;;;;11.64;57.99;98299.69;4418202;32;20022;-81
2022/01/05 03:41:37;;;;;;;;;;;;;;;11.50;58.52;98293.84;4418288;32;20011;-82
2022/01/05 03:44:04;;;;;;;;;;;;;;;11.54;58.01;98292.94;4415732;32;20689;-80
2022/01/05 03:46:31;;;;;;;;;;;;;;;11.56;58.02;98291.19;4422232;32;19996;-81
2022/01/05 03:49:00;;;;;;;;;;;;;;;11.62;57.71;98291.09;4418440;32;19986;-81
2022/01/05 03:51:27;;;;;;;;;;;;;;;11.69;57.53;98291.88;4415841;32;20338;-81
2022/01/05 03:53:53;;;;;;;;;;;;;;;11.54;58.23;98298.09;4417924;32;20281;-82
2022/01/05 03:56:20;;;;;;;;;;;;;;;11.57;57.97;98281.66;4422379;32;19982;-82
2022/01/05 03:58:47;;;;;;;;;;;;;;;11.57;57.80;98282.53;4416096;32;20727;-81
2022/01/05 04:01:14;;;;;;;;;;;;;;;11.61;57.76;98279.03;4416263;32;20015;-81
2022/01/05 04:03:42;;;;;;;;;;;;;;;11.54;57.97;98279.97;4417371;32;24856;-82
2022/01/05 04:06:08;;;;;;;;;;;;;;;11.46;58.02;98271.47;4420351;32;20033;-81
2022/01/05 04:08:35;;;;;;;;;;;;;;;11.54;58.10;98261.84;4416438;32;19982;-81
2022/01/05 04:11:02;;;;;;;;;;;;;;;11.56;57.71;98270.44;4405503;32;19990;-82
2022/01/05 04:13:29;;;;;;;;;;;;;;;11.61;58.02;98268.66;4415772;32;19990;-82
2022/01/05 04:15:56;;;;;;;;;;;;;;;11.53;58.30;98265.31;4405244;32;19986;-82
2022/01/05 04:18:22;;;;;;;;;;;;;;;11.58;58.33;98263.53;4402300;32;19977;-81
2022/01/05 04:20:49;;;;;;;;;;;;;;;11.51;58.70;98266.19;4406885;32;20004;-82
2022/01/05 04:23:16;;;;;;;;;;;;;;;11.66;57.91;98265.16;4400559;32;20406;-82
2022/01/05 04:25:43;;;;;;;;;;;;;;;11.60;58.36;98253.97;4400594;32;19990;-82
2022/01/05 04:28:10;;;;;;;;;;;;;;;11.64;58.24;98253.03;4409098;32;20000;-83
2022/01/05 04:30:36;;;;;;;;;;;;;;;11.71;57.94;98268.50;4400478;32;20031;-82
2022/01/05 04:33:03;;;;;;;;;;;;;;;11.72;58.19;98270.25;4397042;32;20009;-82
2022/01/05 04:35:50;;;;;;;;;;;;;;;11.61;58.30;98258.31;4401986;32;20820;-82
2022/01/05 04:38:17;;;;;;;;;;;;;;;11.60;58.38;98264.34;4406698;32;19996;-81
2022/01/05 04:40:44;;;;;;;;;;;;;;;11.70;57.92;98269.41;4400075;32;20036;-81
2022/01/05 04:43:11;;;;;;;;;;;;;;;11.70;57.97;98265.06;4400410;32;19982;-82
2022/01/05 04:45:38;;;;;;;;;;;;;;;11.77;58.04;98268.44;4403900;32;19989;-81
2022/01/05 04:48:04;;;;;;;;;;;;;;;11.58;58.23;98266.13;4411725;32;20028;-82
2022/01/05 04:50:31;;;;;;;;;;;;;;;11.72;58.18;98254.69;4400164;32;20043;-82
2022/01/05 04:52:58;;;;;;;;;;;;;;;11.75;57.71;98254.66;4398190;32;19982;-82
2022/01/05 04:55:25;;;;;;;;;;;;;;;11.55;58.67;98258.38;4401934;32;19990;-81
2022/01/05 04:57:52;;;;;;;;;;;;;;;11.69;58.02;98254.75;4389185;32;20008;-81
2022/01/05 05:00:19;;;;;;;;;;;;;;;11.60;58.47;98246.19;4400123;32;19996;-81
2022/01/05 05:02:45;;;;;;;;;;;;;;;11.69;57.99;98252.16;4408102;32;19997;-81
2022/01/05 05:05:12;;;;;;;;;;;;;;;11.69;58.14;98244.38;4410765;32;20309;-81
2022/01/05 05:07:39;;;;;;;;;;;;;;;11.70;57.82;98246.06;4421898;32;19988;-81
2022/01/05 05:10:06;;;;;;;;;;;;;;;11.61;58.17;98245.34;4414998;32;19993;-81
2022/01/05 05:12:33;;;;;;;;;;;;;;;11.64;58.00;98253.03;4417487;32;19977;-81
2022/01/05 05:15:00;;;;;;;;;;;;;;;11.58;58.22;98253.16;4420285;32;20263;-80
2022/01/05 05:17:27;;;;;;;;;;;;;;;11.74;57.30;98253.81;4414862;32;20023;-81
2022/01/05 05:19:53;;;;;;;;;;;;;;;11.78;57.33;98264.97;4414923;32;20026;-81
2022/01/05 05:22:20;;;;;;;;;;;;;;;11.78;57.33;98259.81;4415271;32;19985;-81
2022/01/05 05:24:47;;;;;;;;;;;;;;;11.77;57.51;98258.06;4414602;32;19978;-81
2022/01/05 05:27:14;;;;;;;;;;;;;;;11.73;57.83;98259.00;4421606;32;20111;-81
2022/01/05 05:29:41;;;;;;;;;;;;;;;11.74;57.95;98258.09;4417982;32;19997;-81
2022/01/05 05:32:08;;;;;;;;;;;;;;;11.78;57.94;98255.47;4416237;32;19997;-81
2022/01/05 05:34:34;;;;;;;;;;;;;;;11.75;57.70;98259.84;4423459;32;19978;-77
2022/01/05 05:37:02;;;;;;;;;;;;;;;11.86;57.48;98253.63;4415605;32;20002;-88
2022/01/05 05:39:29;;;;;;;;;;;;;;;11.78;57.54;98259.81;4414771;32;20388;-81
2022/01/05 05:41:56;;;;;;;;;;;;;;;11.82;57.31;98264.06;4417258;32;20037;-79
2022/01/05 05:44:23;;;;;;;;;;;;;;;11.84;57.78;98264.91;4423762;32;19974;-80
2022/01/05 05:46:50;;;;;;;;;;;;;;;11.96;57.65;98274.25;4428075;32;19989;-80
2022/01/05 05:49:17;;;;;;;;;;;;;;;12.01;57.13;98273.31;4429680;32;19985;-79
2022/01/05 05:51:44;;;;;;;;;;;;;;;11.96;57.38;98280.28;4421720;32;19969;-78
2022/01/05 05:54:11;;;;;;;;;;;;;;;12.03;56.68;98284.53;4414837;32;20299;-84
2022/01/05 05:56:38;;;;;;;;;;;;;;;11.93;57.46;98288.09;4427544;32;20056;-87
2022/01/05 05:59:05;;;;;;;;;;;;;;;11.82;57.49;98287.38;4420784;32;20040;-86
2022/01/05 06:01:32;;;;;;;;;;;;;;;11.94;57.55;98282.06;4431315;32;20056;-81
2022/01/05 06:04:00;;;;;;;;;;;;;;;12.01;57.13;98282.81;4432076;32;19992;-81
2022/01/05 06:06:27;;;;;;;;;;;;;;;11.93;56.89;98275.12;4438319;32;19982;-83
2022/01/05 06:08:54;;;;;;;;;;;;;;;11.90;57.79;98280.41;4427925;32;19989;-84
2022/01/05 06:11:21;;;;;;;;;;;;;;;11.81;57.71;98285.69;4425990;32;19969;-84
2022/01/05 06:13:50;;;;;;;;;;;;;;;11.94;57.33;98287.25;4418444;32;19978;-83
2022/01/05 06:16:16;;;;;;;;;;;;;;;11.91;57.02;98286.44;4416234;32;20025;-82
2022/01/05 06:18:44;;;;;;;;;;;;;;;11.95;57.40;98288.09;4414970;32;20003;-82
2022/01/05 06:21:10;;;;;;;;;;;;;;;11.88;57.31;98287.34;4416097;32;19969;-82
2022/01/05 06:23:37;;;;;;;;;;;;;;;11.85;57.33;98287.38;4417835;32;19990;-82
2022/01/05 06:26:04;;;;;;;;;;;;;;;11.87;57.47;98290.81;4427142;32;19989;-83
2022/01/05 06:28:31;;;;;;;;;;;;;;;11.79;57.57;98277.06;4424584;32;20383;-82
2022/01/05 06:30:58;;;;;;;;;;;;;;;11.86;57.32;98286.50;4430316;32;20447;-83
2022/01/05 06:33:25;;;;;;;;;;;;;;;11.82;57.36;98282.19;4431238;32;20432;-82
2022/01/05 06:35:52;;;;;;;;;;;;;;;11.81;57.11;98291.72;4426609;32;19973;-82
2022/01/05 06:38:19;;;;;;;;;;;;;;;11.75;57.50;98291.81;4421452;32;19996;-82
2022/01/05 06:40:46;;;;;;;;;;;;;;;11.81;57.86;98291.72;4416749;32;20034;-82
2022/01/05 06:43:13;;;;;;;;;;;;;;;11.88;57.67;98296.84;4415855;32;20053;-80
2022/01/05 06:45:40;;;;;;;;;;;;;;;11.63;58.58;98287.63;4414630;32;20000;-81
2022/01/05 06:48:07;;;;;;;;;;;;;;;11.80;58.12;98284.81;4416576;32;20323;-81
2022/01/05 06:50:34;;;;;;;;;;;;;;;11.86;58.17;98283.91;4416204;32;19974;-81
2022/01/05 06:53:02;;;;;;;;;;;;;;;11.70;58.68;98287.56;4414891;32;20974;-82
2022/01/05 06:55:34;;;;;;;;;;;;;;;11.52;59.39;98289.53;4426933;32;19969;-79
2022/01/05 06:58:02;;;;;;;;;;;;;;;11.79;58.69;98295.22;4420181;32;20040;-82
2022/01/05 07:00:31;;;;;;;;;;;;;;;11.88;58.37;98300.28;4431359;32;20056;-81
2022/01/05 07:02:58;;;;;;;;;;;;;;;11.95;58.39;98303.66;4425749;32;19985;-81
2022/01/05 07:05:25;;;;;;;;;;;;;;;11.75;59.02;98296.13;4415847;32;20050;-81
2022/01/05 07:07:52;;;;;;;;;;;;;;;11.81;59.21;98298.66;4415702;32;19985;-81
2022/01/05 07:10:19;;;;;;;;;;;;;;;11.79;59.70;98292.63;4416719;32;19997;-84
2022/01/05 07:12:46;;;;;;;;;;;;;;;11.91;59.52;98291.63;4431261;32;20052;-82
2022/01/05 07:15:14;;;;;;;;;;;;;;;11.95;59.42;98291.53;4415827;32;19993;-83
2022/01/05 07:17:41;;;;;;;;;;;;;;;12.01;59.42;98296.66;4415889;32;19989;-85
2022/01/05 07:20:10;;;;;;;;;;;;;;;12.06;58.96;98297.44;4415359;32;20026;-81
2022/01/05 07:22:39;;;;;;;;;;;;;;;12.15;58.89;98305.94;4415670;32;19989;-82
2022/01/05 07:25:06;;;;;;;;;;;;;;;12.13;59.49;98302.53;4414330;32;19981;-82
2022/01/05 07:27:32;;;;;;;;;;;;;;;11.98;60.93;98301.87;4419492;32;20279;-82
2022/01/05 07:29:59;;;;;;;;;;;;;;;12.12;60.71;98306.00;4425125;32;20105;-83
2022/01/05 07:32:28;;;;;;;;;;;;;;;12.13;61.10;98310.31;4416795;32;20028;-84
2022/01/05 07:34:55;;;;;;;;;;;;;;;11.93;62.17;98303.66;4423710;32;20011;-84
2022/01/05 07:37:23;;;;;;;;;;;;;;;12.06;61.66;98307.81;4432001;32;19996;-85
2022/01/05 07:39:50;;;;;;;;;;;;;;;12.18;61.62;98305.91;4419784;32;20007;-86
2022/01/05 07:42:17;;;;;;;;;;;;;;;12.12;61.73;98295.63;4419687;32;20031;-88
2022/01/05 07:44:44;;;;;;;;;;;;;;;12.09;62.09;98302.59;4419004;32;19978;-88
2022/01/05 07:47:11;;;;;;;;;;;;;;;11.80;63.53;98302.09;4421299;32;19997;-84
2022/01/05 07:49:40;;;;;;;;;;;;;;;11.55;64.37;98305.03;4423591;32;19993;-83
2022/01/05 07:52:08;;;;;;;;;;;;;;;11.83;63.49;98299.47;4416046;32;19993;-83
2022/01/05 07:54:35;;;;;;;;;;;;;;;11.79;63.83;98293.47;4416633;32;19998;-85
2022/01/05 07:57:03;;;;;;;;;;;;;;;11.80;63.84;98295.16;4408060;32;19996;-83
2022/01/05 07:59:30;;;;;;;;;;;;;;;11.68;64.32;98289.28;4424121;32;20786;-84
2022/01/05 08:01:57;;;;;;;;;;;;;;;11.82;63.89;98292.56;4400731;32;20009;-83
2022/01/05 08:04:24;;;;;;;;;;;;;;;11.88;63.95;98302.88;4400622;32;19978;-81
2022/01/05 08:06:50;;;;;;;;;;;;;;;11.55;65.21;98299.84;4413957;32;19977;-81
2022/01/05 08:09:18;;;;;;;;;;;;;;;11.40;66.07;98300.87;4428892;32;19982;-81
2022/01/05 08:11:45;;;;;;;;;;;;;;;11.69;65.29;98304.00;4417452;32;19978;-82
2022/01/05 08:14:12;;;;;;;;;;;;;;;11.70;65.00;98310.88;4414835;32;20344;-82
2022/01/05 08:16:39;;;;;;;;;;;;;;;11.66;65.23;98317.84;4415528;32;20350;-82
2022/01/05 08:19:06;;;;;;;;;;;;;;;11.44;66.38;98319.84;4424186;32;20707;-83
2022/01/05 08:21:33;;;;;;;;;;;;;;;11.66;65.67;98324.75;4415666;32;20499;-81
2022/01/05 08:24:00;;;;;;;;;;;;;;;11.92;64.75;98320.12;4416084;32;19993;-82
2022/01/05 08:26:27;;;;;;;;;;;;;;;11.82;64.87;98315.91;4417461;32;19982;-82
2022/01/05 08:28:55;;;;;;;;;;;;;;;12.04;64.27;98317.34;4424408;32;20003;-81
2022/01/05 08:31:22;;;;;;;;;;;;;;;11.91;64.99;98313.22;4393622;32;974983;-82
2022/01/05 08:33:49;;;;;;;;;;;;;;;12.22;64.00;98323.13;4413942;32;20303;-81
2022/01/05 08:36:16;;;;;;;;;;;;;;;11.72;65.68;98332.47;4426846;32;19978;-82
2022/01/05 08:38:44;;;;;;;;;;;;;;;11.86;65.30;98325.38;4421104;32;19995;-81
2022/01/05 08:41:11;;;;;;;;;;;;;;;11.84;65.44;98333.19;4419609;32;19993;-82
2022/01/05 08:43:38;;;;;;;;;;;;;;;12.39;63.85;98330.69;4417668;32;20374;-82
2022/01/05 08:46:05;;;;;;;;;;;;;;;11.88;65.54;98323.63;4420512;32;19974;-82
2022/01/05 08:48:32;;;;;;;;;;;;;;;12.17;64.29;98324.97;4407265;32;20052;-83
2022/01/05 08:50:58;;;;;;;;;;;;;;;12.22;64.28;98323.13;4406190;32;20112;-82
2022/01/05 08:53:25;;;;;;;;;;;;;;;12.09;64.72;98328.53;4417914;32;19986;-82
2022/01/05 08:55:53;;;;;;;;;;;;;;;12.01;65.50;98325.16;4411269;32;20033;-84
2022/01/05 08:58:20;;;;;;;;;;;;;;;12.34;64.11;98320.34;4410109;32;20317;-82
2022/01/05 09:00:51;;;;;;;;;;;;;;;12.29;64.53;98335.16;4412226;32;19990;-81
2022/01/05 09:03:18;;;;;;;;;;;;;;;12.36;64.05;98336.78;4398956;32;19986;-82
2022/01/05 09:05:45;;;;;;;;;;;;;;;12.57;63.53;98341.63;4399657;32;20001;-82
2022/01/05 09:08:16;;;;;;;;;;;;;;;12.91;62.36;98351.44;4400817;32;20354;-81
2022/01/05 09:10:43;;;;;;;;;;;;;;;12.82;62.70;98353.34;4409989;32;20037;-80
2022/01/05 09:13:12;;;;;;;;;;;;;;;12.61;63.45;98354.56;4408311;32;20024;-81
2022/01/05 09:15:40;;;;;;;;;;;;;;;12.21;64.84;98347.37;4405703;32;19970;-82
2022/01/05 09:18:07;;;;;;;;;;;;;;;12.62;63.76;98353.66;4410577;32;20374;-81
2022/01/05 09:20:34;;;;;;;;;;;;;;;13.36;61.16;98351.50;4401417;32;19988;-81
2022/01/05 09:23:02;;;;;;;;;;;;;;;12.93;62.42;98359.22;4402440;32;19982;-82
2022/01/05 09:25:29;;;;;;;;;;;;;;;13.04;62.12;98363.31;4403770;32;19990;-85
2022/01/05 09:27:56;;;;;;;;;;;;;;;13.16;61.60;98361.41;4410503;32;19978;-80
2022/01/05 09:30:23;;;;;;;;;;;;;;;13.22;61.48;98371.69;4401819;32;20035;-82
2022/01/05 09:32:50;;;;;;;;;;;;;;;13.56;59.76;98376.25;4410367;32;19978;-83
2022/01/05 09:35:20;;;;;;;;;;;;;;;12.93;61.14;98385.19;4403319;32;20002;-83
2022/01/05 09:38:36;;;;;;;;;;;;;;;13.17;60.12;98386.50;4404447;32;20255;-82
2022/01/05 09:43:51;;;;;;;;;;;;;;;12.76;60.61;98382.84;4409006;32;20027;-82
2022/01/05 09:46:32;;;;;;;;;;;;;;;12.74;61.02;98379.44;4413355;32;19984;-80
2022/01/05 09:49:09;;;;;;;;;;;;;;;13.21;59.52;98386.44;4401789;32;19982;-82
2022/01/05 09:51:37;;;;;;;;;;;;;;;13.59;58.06;98384.00;4431810;32;19993;-81
2022/01/05 09:54:03;;;;;;;;;;;;;;;13.41;58.59;98386.09;4404118;32;20356;-80
2022/01/05 09:56:50;;;;;;;;;;;;;;;13.47;58.38;98378.16;4415856;32;19986;-81
2022/01/05 09:59:20;;;;;;;;;;;;;;;13.34;58.89;98371.50;4403471;32;20302;-84
2022/01/05 10:01:47;;;;;;;;;;;;;;;13.12;59.52;98377.94;4408725;32;20024;-81
2022/01/05 10:04:16;;;;;;;;;;;;;;;12.97;59.94;98381.66;4419520;32;19993;-84
2022/01/05 10:06:43;;;;;;;;;;;;;;;13.32;58.88;98372.41;4387270;32;20053;-82
2022/01/05 10:09:09;;;;;;;;;;;;;;;13.57;57.95;98378.00;4383666;32;20031;-82
2022/01/05 10:11:37;;;;;;;;;;;;;;;13.54;58.14;98383.25;4405347;32;19986;-82
2022/01/05 10:14:06;;;;;;;;;;;;;;;13.53;58.06;98387.59;4410055;32;20060;-84
2022/01/05 10:16:32;;;;;;;;;;;;;;;13.38;58.45;98386.13;4401821;32;20002;-83
2022/01/05 10:19:00;;;;;;;;;;;;;;;13.74;57.50;98391.50;4399285;32;20110;-82
2022/01/05 10:21:34;;;;;;;;;;;;;;;13.81;57.35;98387.88;4400558;32;19996;-81
2022/01/05 10:24:01;;;;;;;;;;;;;;;13.73;57.71;98384.59;4412739;32;19982;-83
2022/01/05 10:26:28;;;;;;;;;;;;;;;13.61;58.12;98384.84;4424370;32;19981;-81
2022/01/05 10:29:05;;;;;;;;;;;;;;;13.54;58.19;98384.09;4425699;32;19981;-83
2022/01/05 10:31:32;;;;;;;;;;;;;;;13.66;57.52;98377.81;4428112;32;20328;-84
2022/01/05 10:34:00;;;;;;;;;;;;;;;13.45;57.89;98395.53;4417625;32;19977;-85
2022/01/05 10:36:49;;;;;;;;;;;;;;;13.38;57.81;98393.94;4424109;32;20341;-85
2022/01/05 10:39:29;;;;;;;;;;;;;;;13.14;58.51;98389.12;4421921;32;19974;-84
2022/01/05 10:42:01;;;;;;;;;;;;;;;13.24;58.29;98390.69;4422014;32;20016;-84
2022/01/05 10:44:28;;;;;;;;;;;;;;;13.47;57.26;98387.72;4415331;32;20084;-84
2022/01/05 10:46:56;;;;;;;;;;;;;;;13.32;57.71;98391.44;4428153;32;20736;-84
2022/01/05 10:49:25;;;;;;;;;;;;;;;13.33;57.80;98400.09;4424804;32;20321;-83
2022/01/05 10:51:52;;;;;;;;;;;;;;;13.08;58.61;98405.72;4427110;32;20001;-84
2022/01/05 10:54:23;;;;;;;;;;;;;;;12.81;59.63;98407.00;4425312;32;19986;-84
2022/01/05 10:56:50;;;;;;;;;;;;;;;12.80;60.38;98405.31;4423140;32;20030;-84
2022/01/05 10:59:22;;;;;;;;;;;;;;;13.17;59.39;98420.25;4416262;32;20041;-85
2022/01/05 11:01:51;;;;;;;;;;;;;;;12.95;60.47;98409.38;4417175;32;19986;-85
2022/01/05 11:04:19;;;;;;;;;;;;;;;12.98;60.02;98415.37;4420815;32;19974;-84
2022/01/05 11:07:04;;;;;;;;;;;;;;;12.69;61.14;98417.59;4414773;32;19990;-83
2022/01/05 11:09:31;;;;;;;;;;;;;;;12.77;60.67;98426.13;4422065;32;19969;-84
2022/01/05 11:11:59;;;;;;;;;;;;;;;12.94;59.95;98429.31;4425143;32;19982;-84
2022/01/05 11:14:30;;;;;;;;;;;;;;;12.82;59.98;98429.50;4425180;32;20515;-85
2022/01/05 11:17:01;;;;;;;;;;;;;;;12.61;61.17;98442.81;4429953;32;20004;-86
2022/01/05 11:19:28;;;;;;;;;;;;;;;12.51;61.07;98450.75;4421124;32;19985;-85
2022/01/05 11:21:55;;;;;;;;;;;;;;;12.49;61.21;98447.28;4424247;32;20033;-85
2022/01/05 11:24:22;;;;;;;;;;;;;;;12.83;59.88;98446.81;4417544;32;19991;-87
2022/01/05 11:26:49;;;;;;;;;;;;;;;12.52;60.49;98434.28;4418441;32;19990;-86
2022/01/05 11:29:16;;;;;;;;;;;;;;;12.15;61.61;98449.47;4428795;32;19977;-85
2022/01/05 11:31:45;;;;;;;;;;;;;;;12.25;61.56;98447.63;4416509;32;19978;-83
2022/01/05 11:34:12;;;;;;;;;;;;;;;11.76;62.85;98449.03;4424386;32;19981;-85
2022/01/05 11:36:39;;;;;;;;;;;;;;;12.31;61.21;98447.53;4427987;32;19996;-86
2022/01/05 11:39:07;;;;;;;;;;;;;;;12.12;61.49;98446.06;4427538;32;20035;-89
2022/01/05 11:41:36;;;;;;;;;;;;;;;12.03;61.54;98473.00;4416552;32;19977;-88
2022/01/05 11:44:06;;;;;;;;;;;;;;;12.07;61.39;98479.84;4419592;32;19990;-87
2022/01/05 11:46:33;;;;;;;;;;;;;;;12.03;61.12;98497.19;4419713;32;20007;-88
2022/01/05 11:49:01;;;;;;;;;;;;;;;12.00;60.86;98484.25;4419928;32;19978;-89
2022/01/05 11:51:31;;;;;;;;;;;;;;;11.95;61.41;98473.06;4429586;32;19986;-91
2022/01/05 11:54:12;;;;;;;;;;;;;;;12.09;60.47;98462.50;4423163;32;20031;-91
2022/01/05 11:56:39;;;;;;;;;;;;;;;11.94;61.64;98463.56;4415929;32;19989;-90
2022/01/05 11:59:09;;;;;;;;;;;;;;;12.19;60.54;98463.25;4420192;32;19974;-89
2022/01/05 12:01:37;;;;;;;;;;;;;;;12.40;60.69;98478.56;4414378;32;20124;-88
2022/01/05 12:04:05;;;;;;;;;;;;;;;12.23;61.11;98485.72;4423422;32;19997;-85
2022/01/05 12:06:34;;;;;;;;;;;;;;;12.16;61.23;98494.47;4427492;32;19974;-87
2022/01/05 12:09:05;;;;;;;;;;;;;;;12.17;61.02;98497.00;4415587;32;19986;-85
2022/01/05 12:11:42;;;;;;;;;;;;;;;11.96;61.40;98508.47;4428377;32;20016;-83
2022/01/05 12:14:21;;;;;;;;;;;;;;;12.23;59.80;98507.31;4424517;32;19973;-82
2022/01/05 12:17:06;;;;;;;;;;;;;;;12.28;59.96;98499.47;4402854;32;19989;-82
2022/01/05 12:19:34;;;;;;;;;;;;;;;12.17;59.64;98498.75;4400812;32;19978;-81
2022/01/05 12:22:08;;;;;;;;;;;;;;;11.95;60.67;98501.59;4400554;32;20026;-83
2022/01/05 12:24:54;;;;;;;;;;;;;;;12.06;60.43;98515.31;4428788;32;20773;-84
2022/01/05 12:27:22;;;;;;;;;;;;;;;11.47;62.49;98514.13;4407796;32;20004;-86
2022/01/05 12:29:49;;;;;;;;;;;;;;;11.90;61.13;98503.41;4411457;32;19982;-83
2022/01/05 12:32:35;;;;;;;;;;;;;;;12.13;60.24;98500.53;4415609;32;19982;-86
2022/01/05 12:35:20;;;;;;;;;;;;;;;12.20;59.38;98507.34;4414615;32;20953;-87
2022/01/05 12:37:58;;;;;;;;;;;;;;;12.12;60.52;98506.56;4403542;32;19994;-88
2022/01/05 12:40:34;;;;;;;;;;;;;;;12.20;60.49;98511.69;4399449;32;20399;-87
2022/01/05 12:43:07;;;;;;;;;;;;;;;12.39;59.64;98517.50;4405988;32;19993;-87
2022/01/05 12:45:43;;;;;;;;;;;;;;;12.12;60.62;98523.88;4402514;32;20021;-85
2022/01/05 12:48:28;;;;;;;;;;;;;;;12.31;60.55;98521.03;4406651;32;19982;-90
2022/01/05 12:51:13;;;;;;;;;;;;;;;12.44;59.92;98516.56;4399634;32;20036;-86
2022/01/05 12:53:49;;;;;;;;;;;;;;;12.34;59.81;98531.38;4426847;32;19990;-86
2022/01/05 12:56:23;;;;;;;;;;;;;;;11.93;61.54;98534.44;4414461;32;20341;-86
2022/01/05 12:58:51;;;;;;;;;;;;;;;12.07;60.54;98544.69;4414816;32;19986;-89